AirNav   Air Wisconsin Up To $57,000 Bonus
 
 722 users online  

PA93 Cherokee Heliport
Brick Church Village, Pennsylvania, USA

GOING TO BRICK CHURCH VILLAGE?


FAA INFORMATION EFFECTIVE 05 DECEMBER 2019

Location

FAA Identifier: PA93
Lat/Long: 40-41-06.0000N 079-27-24.0000W
40-41.100000N 079-27.400000W
40.6850000,-79.4566667
(estimated)
Elevation: 1175 ft. / 358 m (estimated)
Variation: 09W (1990)
From city: 7 miles SE of BRICK CHURCH VILLAGE, PA
Time zone: UTC -5 (UTC -4 during Daylight Saving Time)
Zip code: 16226

Heliport Operations

Heliport use: Private use. Permission required prior to landing
Activation date: 08/1992
Control tower: no
ARTCC: CLEVELAND CENTER
FSS: ALTOONA FLIGHT SERVICE STATION
Attendance: CONTINUOUS
Wind indicator: yes
Segmented circle: no
Lights: FOR FLOOD LGTS CALL 412-845-9132.

Heliport Communications

UNICOM: 123.05
WX AWOS-3 at IDI (16 nm E): 126.625 (724-463-8551)

Nearby radio navigation aids

VOR radial/distance  VOR name  Freq  Var
CIPr186/27.7CLARION VOR/DME112.9006W
RECr293/33.4REVLOC VOR/DME110.6009W
EWCr112/35.3ELLWOOD CITY VOR/DME115.8008W
JSTr314/36.0JOHNSTOWN VOR/DME113.0006W
AGCr057/36.1ALLEGHENY VOR/DME110.0009W

Heliport Services

Runway Information

Helipad H1

Dimensions: 60 x 60 ft. / 18 x 18 m
Surface: asphalt/concrete
Runway edge lights: FLD
Latitude: 40-41.100000N
Longitude: 079-27.400000W
Elevation: 1175.0 ft.
Traffic pattern: leftleft

Heliport Ownership and Management from official FAA records

Ownership: Privately-owned
Owner: KEN E. WALKER
R.D. 2 BRICK CHURCH ROAD
FORD CITY, PA 16226
Phone 412-845-9132
Manager: CHEROKEE WALKER
R.D. 2 BRICK CHURCH ROAD
FORD CITY, PA 16226
Phone 412-845-9132

Heliport Operational Statistics

Aircraft based on the field: 2
Helicopters: 2
    

Additional Remarks

A52-H1 10 FT MKD PLINE 200 FT FM PAD.
FOR CD CTC JOHNSTOWN APCH AT 814-532-5960, WHEN APCH CLSD CTC CLEVELAND ARTCC AT 440-774-0234.

Instrument Procedures

There are no published instrument procedures at PA93.

Some nearby airports with instrument procedures:

6P7 - McVille Airport (7 nm NW)
KIDI - Indiana County Airport (Jimmy Stewart Field) (16 nm E)
KBTP - Pittsburgh/Butler Regional Airport (23 nm W)
KLBE - Arnold Palmer Regional Airport (25 nm S)
N35 - Punxsutawney Municipal Airport (29 nm NE)
 
Loc | Ops | Rwys | IFR | FBO | Links
Com | Nav | Svcs | Stats | Notes
Area around PA93 (Cherokee Heliport)
 
Road maps at: MapQuest Bing Google
 
Aerial photo
No photo
 
Sectional chart

 
Airport distance calculator
Flying to Cherokee Heliport? Find the distance to fly.

From to PA93

Sunrise and sunset
Times for 07-Dec-2019
 Local
(UTC-5)
 Zulu
(UTC)
Morning civil twilight06:5911:59
Sunrise07:2912:29
Sunset16:4921:49
Evening civil twilight17:2022:20

Current date and time
Zulu (UTC)  07-Dec-2019 10:12:19
Local (UTC-5)  07-Dec-2019 05:12:19
 
METAR
KIDI 
17nm E 
070955Z AUTO 00000KT 10SM CLR M05/M06 A3033 RMK A01
KBTP 
23nm W 
070956Z AUTO 00000KT 10SM CLR M03/M07 A3032 RMK AO2 SLP287 T10331067 FZRANO
KLBE 
25nm S 
070955Z AUTO 00000KT 10SM CLR M05/M06 A3032 RMK AO2
KAGC 
29nm SW 
070953Z 35006KT 10SM CLR M03/M07 A3031 RMK AO2 SLP280 T10281067 $
KPJC 
33nm W 
070955Z AUTO 00000KT 10SM CLR M06/M06 A3034 RMK AO2
KP53 
33nm SW 
070956Z AUTO 20009KT M07/M10 A3027 RMK AO1 SLP262 T10721100
TAF
KLBE 
25nm S 
070525Z 0706/0806 VRB03KT P6SM BKN200 FM071500 14004KT P6SM SCT250
KAGC 
29nm SW 
070525Z 0706/0806 VRB03KT P6SM BKN200 FM080000 14004KT P6SM SCT250
NOTAMs
Click for the latest NOTAMs
NOTAMs are issued by the DoD/FAA and will open in a separate window not controlled by AirNav.

 

 
 

Would you like to see your business listed on this page?

 If your business provides an interesting product or service to pilots, flight crews, aircraft, or users of the Cherokee Heliport, you should consider listing it here.  To start the listing process, click on the button below
 
Add a business
 

Other Pages about Cherokee Heliport

Update a link
 
Copyright © AirNav, LLC. All rights reserved. Privacy Policy  Contact